sensor_id;sensor_type;location;lat;lon;timestamp;pressure;altitude;pressure_sealevel;temperature;humidity
5905;BME280;2978;42.012;24.880;2022-07-04T00:00:07;98971.81;;;23.96;45.57
5905;BME280;2978;42.012;24.880;2022-07-04T00:02:33;98981.88;;;23.97;45.95
5905;BME280;2978;42.012;24.880;2022-07-04T00:04:59;98969.28;;;23.91;45.70
5905;BME280;2978;42.012;24.880;2022-07-04T00:07:25;98981.66;;;24.02;45.66
5905;BME280;2978;42.012;24.880;2022-07-04T00:09:50;98976.25;;;23.97;48.02
5905;BME280;2978;42.012;24.880;2022-07-04T00:12:16;98974.41;;;24.01;46.67
5905;BME280;2978;42.012;24.880;2022-07-04T00:14:42;98974.41;;;24.01;52.00
5905;BME280;2978;42.012;24.880;2022-07-04T00:17:08;98967.16;;;24.00;54.84
5905;BME280;2978;42.012;24.880;2022-07-04T00:19:33;98965.50;;;23.99;56.76
5905;BME280;2978;42.012;24.880;2022-07-04T00:21:59;98967.38;;;23.95;57.86
5905;BME280;2978;42.012;24.880;2022-07-04T00:24:24;98973.06;;;23.83;58.75
5905;BME280;2978;42.012;24.880;2022-07-04T00:26:50;98971.31;;;23.79;59.22
5905;BME280;2978;42.012;24.880;2022-07-04T00:29:16;98957.41;;;23.70;59.92
5905;BME280;2978;42.012;24.880;2022-07-04T00:31:41;98970.06;;;23.64;59.73
5905;BME280;2978;42.012;24.880;2022-07-04T00:34:07;98966.59;;;23.55;59.68
5905;BME280;2978;42.012;24.880;2022-07-04T00:36:32;98964.97;;;23.42;56.20
5905;BME280;2978;42.012;24.880;2022-07-04T00:38:58;98960.34;;;23.34;56.70
5905;BME280;2978;42.012;24.880;2022-07-04T00:41:23;98949.34;;;23.17;56.92
5905;BME280;2978;42.012;24.880;2022-07-04T00:44:06;98960.78;;;23.12;56.88
5905;BME280;2978;42.012;24.880;2022-07-04T00:46:32;98956.13;;;23.04;56.77
5905;BME280;2978;42.012;24.880;2022-07-04T00:48:57;98953.81;;;22.94;57.61
5905;BME280;2978;42.012;24.880;2022-07-04T00:51:24;98950.06;;;22.90;57.85
5905;BME280;2978;42.012;24.880;2022-07-04T00:53:51;98953.34;;;22.92;58.35
5905;BME280;2978;42.012;24.880;2022-07-04T00:56:17;98945.16;;;22.87;59.59
5905;BME280;2978;42.012;24.880;2022-07-04T00:58:43;98946.91;;;22.91;60.08
5905;BME280;2978;42.012;24.880;2022-07-04T01:01:08;98949.22;;;22.89;60.98
5905;BME280;2978;42.012;24.880;2022-07-04T01:03:34;98948.06;;;22.90;61.48
5905;BME280;2978;42.012;24.880;2022-07-04T01:06:00;98940.69;;;22.86;61.92
5905;BME280;2978;42.012;24.880;2022-07-04T01:08:26;98942.72;;;22.85;62.37
5905;BME280;2978;42.012;24.880;2022-07-04T01:10:51;98939.06;;;22.85;62.35
5905;BME280;2978;42.012;24.880;2022-07-04T01:13:23;98931.03;;;22.83;62.93
5905;BME280;2978;42.012;24.880;2022-07-04T01:15:50;98939.06;;;22.85;62.88
5905;BME280;2978;42.012;24.880;2022-07-04T01:18:18;98937.00;;;22.82;62.57
5905;BME280;2978;42.012;24.880;2022-07-04T01:20:44;98932.06;;;22.79;63.16
5905;BME280;2978;42.012;24.880;2022-07-04T01:23:10;98926.91;;;22.81;62.39
5905;BME280;2978;42.012;24.880;2022-07-04T01:25:36;98919.94;;;22.75;62.78
5905;BME280;2978;42.012;24.880;2022-07-04T01:28:02;98920.41;;;22.77;62.20
5905;BME280;2978;42.012;24.880;2022-07-04T01:30:29;98922.38;;;22.76;60.82
5905;BME280;2978;42.012;24.880;2022-07-04T01:32:55;98914.09;;;22.80;60.97
5905;BME280;2978;42.012;24.880;2022-07-04T01:35:22;98917.72;;;22.80;60.80
5905;BME280;2978;42.012;24.880;2022-07-04T01:37:48;98926.56;;;22.82;60.82
5905;BME280;2978;42.012;24.880;2022-07-04T01:40:14;98916.06;;;22.79;60.67
5905;BME280;2978;42.012;24.880;2022-07-04T01:42:40;98916.78;;;22.76;60.97
5905;BME280;2978;42.012;24.880;2022-07-04T01:45:06;98907.31;;;22.69;61.50
5905;BME280;2978;42.012;24.880;2022-07-04T01:47:32;98915.72;;;22.69;61.41
5905;BME280;2978;42.012;24.880;2022-07-04T01:49:58;98914.56;;;22.58;61.68
5905;BME280;2978;42.012;24.880;2022-07-04T01:52:23;98913.75;;;22.57;62.15
5905;BME280;2978;42.012;24.880;2022-07-04T01:54:49;98911.94;;;22.53;62.49
5905;BME280;2978;42.012;24.880;2022-07-04T01:57:14;98910.31;;;22.52;61.83
5905;BME280;2978;42.012;24.880;2022-07-04T01:59:40;98905.19;;;22.42;62.51
5905;BME280;2978;42.012;24.880;2022-07-04T02:02:24;98913.59;;;22.42;62.25
5905;BME280;2978;42.012;24.880;2022-07-04T02:04:49;98914.06;;;22.44;61.95
5905;BME280;2978;42.012;24.880;2022-07-04T02:07:15;98904.22;;;22.38;61.94
5905;BME280;2978;42.012;24.880;2022-07-04T02:09:41;98909.34;;;22.35;62.06
5905;BME280;2978;42.012;24.880;2022-07-04T02:12:07;98911.13;;;22.28;62.45
5905;BME280;2978;42.012;24.880;2022-07-04T02:14:51;98925.81;;;22.37;62.23
5905;BME280;2978;42.012;24.880;2022-07-04T02:17:16;98912.41;;;22.30;62.40
5905;BME280;2978;42.012;24.880;2022-07-04T02:19:42;98912.41;;;22.30;62.42
5905;BME280;2978;42.012;24.880;2022-07-04T02:22:07;98912.03;;;22.32;62.26
5905;BME280;2978;42.012;24.880;2022-07-04T02:24:33;98915.19;;;22.30;62.68
5905;BME280;2978;42.012;24.880;2022-07-04T02:26:58;98915.91;;;22.27;62.53
5905;BME280;2978;42.012;24.880;2022-07-04T02:29:24;98923.22;;;22.20;62.98
5905;BME280;2978;42.012;24.880;2022-07-04T02:31:49;98924.75;;;22.17;63.09
5905;BME280;2978;42.012;24.880;2022-07-04T02:34:15;98933.28;;;22.21;62.16
5905;BME280;2978;42.012;24.880;2022-07-04T02:36:40;98929.66;;;22.20;62.06
5905;BME280;2978;42.012;24.880;2022-07-04T02:39:06;98932.81;;;22.19;61.59
5905;BME280;2978;42.012;24.880;2022-07-04T02:41:33;98925.31;;;22.23;60.58
5905;BME280;2978;42.012;24.880;2022-07-04T02:43:59;98936.88;;;22.21;61.29
5905;BME280;2978;42.012;24.880;2022-07-04T02:46:25;98946.72;;;22.27;60.52
5905;BME280;2978;42.012;24.880;2022-07-04T02:48:50;98953.72;;;22.33;60.69
5905;BME280;2978;42.012;24.880;2022-07-04T02:51:16;98953.41;;;22.35;59.64
5905;BME280;2978;42.012;24.880;2022-07-04T02:53:41;98948.69;;;22.27;59.76
5905;BME280;2978;42.012;24.880;2022-07-04T02:56:07;98959.78;;;22.23;60.43
5905;BME280;2978;42.012;24.880;2022-07-04T02:58:33;98951.59;;;22.18;60.42
5905;BME280;2978;42.012;24.880;2022-07-04T03:00:59;98967.22;;;22.19;60.40
5905;BME280;2978;42.012;24.880;2022-07-04T03:03:25;98962.44;;;22.20;60.70
5905;BME280;2978;42.012;24.880;2022-07-04T03:05:50;98961.44;;;22.24;59.84
5905;BME280;2978;42.012;24.880;2022-07-04T03:08:16;98958.16;;;22.22;60.62
5905;BME280;2978;42.012;24.880;2022-07-04T03:10:42;98960.25;;;22.25;60.85
5905;BME280;2978;42.012;24.880;2022-07-04T03:13:07;98968.66;;;22.25;60.47
5905;BME280;2978;42.012;24.880;2022-07-04T03:15:33;98964.00;;;22.29;60.01
5905;BME280;2978;42.012;24.880;2022-07-04T03:17:58;98961.88;;;22.26;60.77
5905;BME280;2978;42.012;24.880;2022-07-04T03:20:24;98968.78;;;22.29;60.57
5905;BME280;2978;42.012;24.880;2022-07-04T03:22:50;98968.56;;;22.34;60.79
5905;BME280;2978;42.012;24.880;2022-07-04T03:25:16;98971.47;;;22.38;60.25
5905;BME280;2978;42.012;24.880;2022-07-04T03:27:42;98962.94;;;22.34;60.69
5905;BME280;2978;42.012;24.880;2022-07-04T03:30:08;98957.44;;;22.25;60.90
5905;BME280;2978;42.012;24.880;2022-07-04T03:32:33;98954.41;;;22.30;59.94
5905;BME280;2978;42.012;24.880;2022-07-04T03:34:58;98964.13;;;22.33;60.81
5905;BME280;2978;42.012;24.880;2022-07-04T03:37:24;98963.28;;;22.32;59.84
5905;BME280;2978;42.012;24.880;2022-07-04T03:39:49;98957.59;;;22.41;59.78
5905;BME280;2978;42.012;24.880;2022-07-04T03:42:15;98955.63;;;22.42;60.04
5905;BME280;2978;42.012;24.880;2022-07-04T03:44:40;98958.66;;;22.49;60.13
5905;BME280;2978;42.012;24.880;2022-07-04T03:47:06;98950.38;;;22.52;59.43
5905;BME280;2978;42.012;24.880;2022-07-04T03:49:31;98951.31;;;22.56;59.09
5905;BME280;2978;42.012;24.880;2022-07-04T03:51:56;98950.78;;;22.63;59.73
5905;BME280;2978;42.012;24.880;2022-07-04T03:54:22;98948.88;;;22.67;58.96
5905;BME280;2978;42.012;24.880;2022-07-04T03:56:47;98951.56;;;22.75;57.95
5905;BME280;2978;42.012;24.880;2022-07-04T03:59:13;98951.69;;;22.79;58.02
5905;BME280;2978;42.012;24.880;2022-07-04T04:01:38;98942.38;;;22.75;58.66
5905;BME280;2978;42.012;24.880;2022-07-04T04:04:04;98930.31;;;22.62;58.95
5905;BME280;2978;42.012;24.880;2022-07-04T04:06:48;98933.72;;;22.68;59.21
5905;BME280;2978;42.012;24.880;2022-07-04T04:09:13;98943.88;;;22.72;59.20
5905;BME280;2978;42.012;24.880;2022-07-04T04:11:42;98934.41;;;22.77;59.03
5905;BME280;2978;42.012;24.880;2022-07-04T04:14:08;98939.56;;;22.87;58.86
5905;BME280;2978;42.012;24.880;2022-07-04T04:16:34;98940.09;;;23.68;55.91
5905;BME280;2978;42.012;24.880;2022-07-04T04:18:59;98941.47;;;24.92;52.18
5905;BME280;2978;42.012;24.880;2022-07-04T04:21:25;98941.09;;;25.78;49.27
5905;BME280;2978;42.012;24.880;2022-07-04T04:23:50;98937.22;;;26.47;47.08
5905;BME280;2978;42.012;24.880;2022-07-04T04:26:16;98938.38;;;26.88;45.71
5905;BME280;2978;42.012;24.880;2022-07-04T04:28:41;98933.22;;;27.45;43.79
5905;BME280;2978;42.012;24.880;2022-07-04T04:31:08;98940.25;;;27.88;43.04
5905;BME280;2978;42.012;24.880;2022-07-04T04:33:34;98933.72;;;28.14;41.84
5905;BME280;2978;42.012;24.880;2022-07-04T04:36:00;98940.25;;;28.21;41.63
5905;BME280;2978;42.012;24.880;2022-07-04T04:38:25;98945.03;;;28.50;41.00
5905;BME280;2978;42.012;24.880;2022-07-04T04:40:51;98948.03;;;28.64;40.98
5905;BME280;2978;42.012;24.880;2022-07-04T04:43:16;98943.84;;;28.95;40.18
5905;BME280;2978;42.012;24.880;2022-07-04T04:45:42;66104.38;;;-143.09;100.00
5905;BME280;2978;42.012;24.880;2022-07-04T04:48:07;66104.38;;;-143.09;100.00
5905;BME280;2978;42.012;24.880;2022-07-04T04:50:33;66104.38;;;-143.09;100.00
5905;BME280;2978;42.012;24.880;2022-07-04T04:52:58;66104.38;;;-143.09;100.00
5905;BME280;2978;42.012;24.880;2022-07-04T04:55:24;66104.38;;;-143.09;100.00
5905;BME280;2978;42.012;24.880;2022-07-04T04:57:49;66104.38;;;-143.09;100.00
5905;BME280;2978;42.012;24.880;2022-07-04T05:00:15;66104.38;;;-143.09;100.00
5905;BME280;2978;42.012;24.880;2022-07-04T05:02:40;66104.38;;;-143.09;100.00
5905;BME280;2978;42.012;24.880;2022-07-04T05:05:06;66104.38;;;-143.09;100.00
5905;BME280;2978;42.012;24.880;2022-07-04T05:07:32;66104.38;;;-143.09;100.00
5905;BME280;2978;42.012;24.880;2022-07-04T05:09:59;66104.38;;;-143.09;100.00
5905;BME280;2978;42.012;24.880;2022-07-04T05:12:25;66104.38;;;-143.09;100.00
5905;BME280;2978;42.012;24.880;2022-07-04T05:14:52;66104.38;;;-143.09;100.00
5905;BME280;2978;42.012;24.880;2022-07-04T05:17:17;66104.38;;;-143.09;100.00
5905;BME280;2978;42.012;24.880;2022-07-04T05:19:43;66104.38;;;-143.09;100.00
5905;BME280;2978;42.012;24.880;2022-07-04T05:22:08;66104.38;;;-143.09;100.00
5905;BME280;2978;42.012;24.880;2022-07-04T05:24:36;66104.38;;;-143.09;100.00
5905;BME280;2978;42.012;24.880;2022-07-04T05:27:07;66104.38;;;-143.09;100.00
5905;BME280;2978;42.012;24.880;2022-07-04T05:29:33;66104.38;;;-143.09;100.00
5905;BME280;2978;42.012;24.880;2022-07-04T05:31:59;66104.38;;;-143.09;100.00
5905;BME280;2978;42.012;24.880;2022-07-04T05:34:24;66104.38;;;-143.09;100.00
5905;BME280;2978;42.012;24.880;2022-07-04T05:36:50;66104.38;;;-143.09;100.00
5905;BME280;2978;42.012;24.880;2022-07-04T05:39:16;66104.38;;;-143.09;100.00
5905;BME280;2978;42.012;24.880;2022-07-04T05:41:42;66104.38;;;-143.09;100.00
5905;BME280;2978;42.012;24.880;2022-07-04T05:44:07;66104.38;;;-143.09;100.00
5905;BME280;2978;42.012;24.880;2022-07-04T05:46:33;66104.38;;;-143.09;100.00
5905;BME280;2978;42.012;24.880;2022-07-04T05:48:58;66104.38;;;-143.09;100.00
5905;BME280;2978;42.012;24.880;2022-07-04T05:51:24;66104.38;;;-143.09;100.00
5905;BME280;2978;42.012;24.880;2022-07-04T05:53:49;66104.38;;;-143.09;100.00
5905;BME280;2978;42.012;24.880;2022-07-04T05:56:15;66104.38;;;-143.09;100.00
5905;BME280;2978;42.012;24.880;2022-07-04T05:58:40;66104.38;;;-143.09;100.00
5905;BME280;2978;42.012;24.880;2022-07-04T06:01:07;66104.38;;;-143.09;100.00
5905;BME280;2978;42.012;24.880;2022-07-04T06:03:34;66104.38;;;-143.09;100.00
5905;BME280;2978;42.012;24.880;2022-07-04T06:06:02;66104.38;;;-143.09;100.00
5905;BME280;2978;42.012;24.880;2022-07-04T06:08:28;66104.38;;;-143.09;100.00
5905;BME280;2978;42.012;24.880;2022-07-04T06:10:53;66104.38;;;-143.09;100.00
5905;BME280;2978;42.012;24.880;2022-07-04T06:13:19;66104.38;;;-143.09;100.00
5905;BME280;2978;42.012;24.880;2022-07-04T06:15:45;66104.38;;;-143.09;100.00
5905;BME280;2978;42.012;24.880;2022-07-04T06:18:11;66104.38;;;-143.09;100.00
5905;BME280;2978;42.012;24.880;2022-07-04T06:20:37;66104.38;;;-143.09;100.00
5905;BME280;2978;42.012;24.880;2022-07-04T06:23:05;66104.38;;;-143.09;100.00
5905;BME280;2978;42.012;24.880;2022-07-04T06:25:31;66104.38;;;-143.09;100.00
5905;BME280;2978;42.012;24.880;2022-07-04T06:27:56;66104.38;;;-143.09;100.00
5905;BME280;2978;42.012;24.880;2022-07-04T06:30:22;66104.38;;;-143.09;100.00
5905;BME280;2978;42.012;24.880;2022-07-04T06:32:50;66104.38;;;-143.09;100.00
5905;BME280;2978;42.012;24.880;2022-07-04T06:35:24;66104.38;;;-143.09;100.00
5905;BME280;2978;42.012;24.880;2022-07-04T06:38:09;66104.38;;;-143.09;100.00
5905;BME280;2978;42.012;24.880;2022-07-04T06:40:36;66104.38;;;-143.09;100.00
5905;BME280;2978;42.012;24.880;2022-07-04T06:43:02;66104.38;;;-143.09;100.00
5905;BME280;2978;42.012;24.880;2022-07-04T06:45:27;66104.38;;;-143.09;100.00
5905;BME280;2978;42.012;24.880;2022-07-04T06:47:53;66104.38;;;-143.09;100.00
5905;BME280;2978;42.012;24.880;2022-07-04T06:50:19;66104.38;;;-143.09;100.00
5905;BME280;2978;42.012;24.880;2022-07-04T06:52:45;66104.38;;;-143.09;100.00
5905;BME280;2978;42.012;24.880;2022-07-04T06:55:10;66104.38;;;-143.09;100.00
5905;BME280;2978;42.012;24.880;2022-07-04T06:57:36;66104.38;;;-143.09;100.00
5905;BME280;2978;42.012;24.880;2022-07-04T07:00:04;66104.38;;;-143.09;100.00
5905;BME280;2978;42.012;24.880;2022-07-04T07:02:30;66104.38;;;-143.09;100.00
5905;BME280;2978;42.012;24.880;2022-07-04T07:04:56;66104.38;;;-143.09;100.00
5905;BME280;2978;42.012;24.880;2022-07-04T07:07:22;66104.38;;;-143.09;100.00
5905;BME280;2978;42.012;24.880;2022-07-04T07:09:50;66104.38;;;-143.09;100.00
5905;BME280;2978;42.012;24.880;2022-07-04T07:12:16;66104.38;;;-143.09;100.00
5905;BME280;2978;42.012;24.880;2022-07-04T07:14:41;66104.38;;;-143.09;100.00
5905;BME280;2978;42.012;24.880;2022-07-04T07:17:06;66104.38;;;-143.09;100.00
5905;BME280;2978;42.012;24.880;2022-07-04T07:19:33;66104.38;;;-143.09;100.00
5905;BME280;2978;42.012;24.880;2022-07-04T07:21:58;66104.38;;;-143.09;100.00
5905;BME280;2978;42.012;24.880;2022-07-04T07:24:24;66104.38;;;-143.09;100.00
5905;BME280;2978;42.012;24.880;2022-07-04T07:26:51;66104.38;;;-143.09;100.00
5905;BME280;2978;42.012;24.880;2022-07-04T07:29:17;66104.38;;;-143.09;100.00
5905;BME280;2978;42.012;24.880;2022-07-04T07:31:43;66104.38;;;-143.09;100.00
5905;BME280;2978;42.012;24.880;2022-07-04T07:34:09;66104.38;;;-143.09;100.00
5905;BME280;2978;42.012;24.880;2022-07-04T07:36:34;66104.38;;;-143.09;100.00
5905;BME280;2978;42.012;24.880;2022-07-04T07:39:00;66104.38;;;-143.09;100.00
5905;BME280;2978;42.012;24.880;2022-07-04T07:41:25;66104.38;;;-143.09;100.00
5905;BME280;2978;42.012;24.880;2022-07-04T07:43:51;66104.38;;;-143.09;100.00
5905;BME280;2978;42.012;24.880;2022-07-04T07:46:17;66104.38;;;-143.09;100.00
5905;BME280;2978;42.012;24.880;2022-07-04T07:48:42;66104.38;;;-143.09;100.00
5905;BME280;2978;42.012;24.880;2022-07-04T07:57:32;98896.88;;;31.05;37.97
5905;BME280;2978;42.012;24.880;2022-07-04T08:01:49;98897.31;;;31.03;36.49
5905;BME280;2978;42.012;24.880;2022-07-04T08:04:15;98889.97;;;31.06;36.09
5905;BME280;2978;42.012;24.880;2022-07-04T08:06:58;98890.38;;;31.08;36.72
5905;BME280;2978;42.012;24.880;2022-07-04T08:09:24;98892.41;;;31.00;35.93
5905;BME280;2978;42.012;24.880;2022-07-04T08:11:49;98886.72;;;30.97;36.48
5905;BME280;2978;42.012;24.880;2022-07-04T08:14:15;98892.81;;;30.99;36.83
5905;BME280;2978;42.012;24.880;2022-07-04T08:16:40;98889.56;;;31.04;36.03
5905;BME280;2978;42.012;24.880;2022-07-04T08:19:06;98874.56;;;31.07;37.05
5905;BME280;2978;42.012;24.880;2022-07-04T08:21:31;98880.25;;;31.14;35.94
5905;BME280;2978;42.012;24.880;2022-07-04T08:23:57;98882.66;;;31.12;35.88
5905;BME280;2978;42.012;24.880;2022-07-04T08:26:23;98887.53;;;31.11;36.62
5905;BME280;2978;42.012;24.880;2022-07-04T08:28:48;98882.66;;;31.12;36.15
5905;BME280;2978;42.012;24.880;2022-07-04T08:31:14;98881.03;;;31.18;35.77
5905;BME280;2978;42.012;24.880;2022-07-04T08:33:39;98883.44;;;31.26;35.32
5905;BME280;2978;42.012;24.880;2022-07-04T08:36:07;98874.53;;;31.35;34.90
5905;BME280;2978;42.012;24.880;2022-07-04T08:38:33;98872.91;;;31.34;34.91
5905;BME280;2978;42.012;24.880;2022-07-04T08:41:00;98873.69;;;31.31;34.69
5905;BME280;2978;42.012;24.880;2022-07-04T08:43:27;98881.41;;;31.27;33.86
5905;BME280;2978;42.012;24.880;2022-07-04T08:45:59;98881.00;;;31.28;34.13
5905;BME280;2978;42.012;24.880;2022-07-04T08:48:27;98881.00;;;31.25;33.88
5905;BME280;2978;42.012;24.880;2022-07-04T08:50:57;98884.69;;;31.36;32.56
5905;BME280;2978;42.012;24.880;2022-07-04T08:53:27;98881.81;;;31.25;32.07
5905;BME280;2978;42.012;24.880;2022-07-04T08:56:28;98882.22;;;31.27;31.90
5905;BME280;2978;42.012;24.880;2022-07-04T08:59:16;98869.22;;;31.30;30.58
5905;BME280;2978;42.012;24.880;2022-07-04T09:01:42;98880.22;;;31.38;30.08
5905;BME280;2978;42.012;24.880;2022-07-04T09:04:11;98866.38;;;31.37;30.54
5905;BME280;2978;42.012;24.880;2022-07-04T09:06:48;98869.59;;;31.49;30.90
5905;BME280;2978;42.012;24.880;2022-07-04T09:09:14;98876.06;;;31.64;28.46
5905;BME280;2978;42.012;24.880;2022-07-04T09:11:40;98868.34;;;31.64;27.34
5905;BME280;2978;42.012;24.880;2022-07-04T09:14:06;98873.22;;;31.64;27.89
5905;BME280;2978;42.012;24.880;2022-07-04T09:16:32;98863.03;;;31.66;26.56
5905;BME280;2978;42.012;24.880;2022-07-04T09:18:57;98867.91;;;31.73;27.42
5905;BME280;2978;42.012;24.880;2022-07-04T09:21:42;98860.13;;;31.77;26.95
5905;BME280;2978;42.012;24.880;2022-07-04T09:24:08;98858.19;;;31.63;26.93
5905;BME280;2978;42.012;24.880;2022-07-04T09:26:33;98852.13;;;31.54;28.55
5905;BME280;2978;42.012;24.880;2022-07-04T09:28:59;98853.31;;;31.64;27.37
5905;BME280;2978;42.012;24.880;2022-07-04T09:31:26;98848.44;;;31.64;28.02
5905;BME280;2978;42.012;24.880;2022-07-04T09:33:53;98849.97;;;31.79;28.52
5905;BME280;2978;42.012;24.880;2022-07-04T09:36:24;98847.50;;;31.92;27.66
5905;BME280;2978;42.012;24.880;2022-07-04T09:44:23;98843.44;;;31.86;22.46
5905;BME280;2978;42.012;24.880;2022-07-04T09:46:48;98853.22;;;31.81;22.69
5905;BME280;2978;42.012;24.880;2022-07-04T09:49:14;98858.50;;;31.79;19.05
5905;BME280;2978;42.012;24.880;2022-07-04T09:51:41;98856.50;;;31.76;19.64
5905;BME280;2978;42.012;24.880;2022-07-04T09:56:56;98853.22;;;31.92;19.96
5905;BME280;2978;42.012;24.880;2022-07-04T09:59:23;98856.81;;;31.99;20.58
5905;BME280;2978;42.012;24.880;2022-07-04T10:01:49;98848.31;;;31.92;22.43
5905;BME280;2978;42.012;24.880;2022-07-04T10:04:15;98845.50;;;31.78;23.20
5905;BME280;2978;42.012;24.880;2022-07-04T10:06:43;98843.47;;;31.82;23.55
5905;BME280;2978;42.012;24.880;2022-07-04T10:09:09;98844.25;;;31.93;24.89
5905;BME280;2978;42.012;24.880;2022-07-04T10:11:35;98845.03;;;32.01;24.58
5905;BME280;2978;42.012;24.880;2022-07-04T10:14:03;98845.81;;;32.02;23.59
5905;BME280;2978;42.012;24.880;2022-07-04T10:16:31;98849.03;;;32.07;24.24
5905;BME280;2978;42.012;24.880;2022-07-04T10:18:56;98837.69;;;32.00;24.13
5905;BME280;2978;42.012;24.880;2022-07-04T10:21:23;98833.63;;;32.05;23.86
5905;BME280;2978;42.012;24.880;2022-07-04T10:23:49;98840.09;;;32.05;23.38
5905;BME280;2978;42.012;24.880;2022-07-04T10:26:18;98834.47;;;31.98;22.78
5905;BME280;2978;42.012;24.880;2022-07-04T10:28:45;98843.84;;;31.95;23.15
5905;BME280;2978;42.012;24.880;2022-07-04T10:31:13;98831.16;;;32.03;23.49
5905;BME280;2978;42.012;24.880;2022-07-04T10:33:39;98834.41;;;32.05;24.68
5905;BME280;2978;42.012;24.880;2022-07-04T10:36:14;98830.38;;;32.03;26.05
5905;BME280;2978;42.012;24.880;2022-07-04T10:38:55;98827.13;;;32.04;25.51
5905;BME280;2978;42.012;24.880;2022-07-04T10:41:22;98836.81;;;32.10;26.28
5905;BME280;2978;42.012;24.880;2022-07-04T10:49:02;98814.66;;;32.42;26.13
5905;BME280;2978;42.012;24.880;2022-07-04T10:54:31;98818.69;;;32.45;25.24
5905;BME280;2978;42.012;24.880;2022-07-04T10:59:34;98803.78;;;32.74;25.81
5905;BME280;2978;42.012;24.880;2022-07-04T11:17:57;98798.41;;;32.39;25.58
5905;BME280;2978;42.012;24.880;2022-07-04T11:20:24;98793.53;;;32.36;25.63
5905;BME280;2978;42.012;24.880;2022-07-04T11:22:50;98798.56;;;32.18;25.68
5905;BME280;2978;42.012;24.880;2022-07-04T11:25:15;98801.09;;;32.02;25.71
5905;BME280;2978;42.012;24.880;2022-07-04T11:27:42;98792.47;;;32.16;25.87
5905;BME280;2978;42.012;24.880;2022-07-04T11:30:08;98791.94;;;32.32;25.59
5905;BME280;2978;42.012;24.880;2022-07-04T11:32:36;98783.72;;;32.48;25.61
5905;BME280;2978;42.012;24.880;2022-07-04T11:35:04;98786.78;;;32.67;25.93
5905;BME280;2978;42.012;24.880;2022-07-04T11:37:32;98772.84;;;32.76;25.43
5905;BME280;2978;42.012;24.880;2022-07-04T11:39:58;98777.13;;;32.54;24.59
5905;BME280;2978;42.012;24.880;2022-07-04T11:43:05;98782.97;;;32.40;25.35
5905;BME280;2978;42.012;24.880;2022-07-04T11:45:49;98782.50;;;32.45;25.59
5905;BME280;2978;42.012;24.880;2022-07-04T11:48:24;98775.91;;;32.55;25.49
5905;BME280;2978;42.012;24.880;2022-07-04T11:50:50;98769.06;;;32.49;25.44
5905;BME280;2978;42.012;24.880;2022-07-04T11:53:16;98759.81;;;32.31;26.22
5905;BME280;2978;42.012;24.880;2022-07-04T11:56:16;98751.66;;;32.33;25.38
5905;BME280;2978;42.012;24.880;2022-07-04T11:58:42;98765.44;;;32.38;26.07
5905;BME280;2978;42.012;24.880;2022-07-04T12:01:09;98760.91;;;32.51;25.68
5905;BME280;2978;42.012;24.880;2022-07-04T12:03:35;98762.91;;;32.54;26.13
5905;BME280;2978;42.012;24.880;2022-07-04T12:06:06;98760.06;;;32.54;24.32
5905;BME280;2978;42.012;24.880;2022-07-04T12:09:46;98753.47;;;32.61;23.99
5905;BME280;2978;42.012;24.880;2022-07-04T12:14:21;98768.34;;;32.79;24.49
5905;BME280;2978;42.012;24.880;2022-07-04T12:16:46;98759.81;;;32.79;24.00
5905;BME280;2978;42.012;24.880;2022-07-04T12:19:13;98756.59;;;32.73;24.37
5905;BME280;2978;42.012;24.880;2022-07-04T12:21:39;98740.72;;;32.76;23.83
5905;BME280;2978;42.012;24.880;2022-07-04T12:24:05;98755.72;;;32.80;24.27
5905;BME280;2978;42.012;24.880;2022-07-04T12:26:31;98744.28;;;32.83;24.20
5905;BME280;2978;42.012;24.880;2022-07-04T12:28:56;98748.75;;;32.84;24.24
5905;BME280;2978;42.012;24.880;2022-07-04T12:31:42;98749.22;;;32.79;24.23
5905;BME280;2978;42.012;24.880;2022-07-04T12:34:15;98745.03;;;32.91;24.22
5905;BME280;2978;42.012;24.880;2022-07-04T12:40:09;98739.19;;;33.05;24.18
5905;BME280;2978;42.012;24.880;2022-07-04T12:42:34;98745.75;;;33.02;24.13
5905;BME280;2978;42.012;24.880;2022-07-04T12:45:05;98734.75;;;32.63;24.07
5905;BME280;2978;42.012;24.880;2022-07-04T12:47:32;98742.03;;;32.64;25.00
5905;BME280;2978;42.012;24.880;2022-07-04T12:49:58;98737.09;;;32.72;24.85
5905;BME280;2978;42.012;24.880;2022-07-04T12:52:42;98741.84;;;32.82;24.56
5905;BME280;2978;42.012;24.880;2022-07-04T12:55:08;98738.50;;;32.90;24.76
5905;BME280;2978;42.012;24.880;2022-07-04T12:57:37;98729.72;;;32.74;24.95
5905;BME280;2978;42.012;24.880;2022-07-04T13:00:03;98732.19;;;32.76;24.84
5905;BME280;2978;42.012;24.880;2022-07-04T13:02:29;98718.22;;;32.85;25.10
5905;BME280;2978;42.012;24.880;2022-07-04T13:04:54;98719.84;;;32.86;24.63
5905;BME280;2978;42.012;24.880;2022-07-04T13:07:20;98720.66;;;32.86;25.03
5905;BME280;2978;42.012;24.880;2022-07-04T13:10:14;98720.97;;;32.95;25.23
5905;BME280;2978;42.012;24.880;2022-07-04T13:16:52;98707.84;;;33.05;24.81
5905;BME280;2978;42.012;24.880;2022-07-04T13:19:29;98705.00;;;33.05;25.10
5905;BME280;2978;42.012;24.880;2022-07-04T13:22:43;98717.03;;;33.20;24.64
5905;BME280;2978;42.012;24.880;2022-07-04T13:25:24;98698.28;;;33.19;24.77
5905;BME280;2978;42.012;24.880;2022-07-04T13:27:53;98713.44;;;33.12;23.95
5905;BME280;2978;42.012;24.880;2022-07-04T13:30:18;98714.97;;;32.86;24.73
5905;BME280;2978;42.012;24.880;2022-07-04T13:32:43;98708.78;;;32.95;24.63
5905;BME280;2978;42.012;24.880;2022-07-04T13:35:09;98704.66;;;32.99;24.69
5905;BME280;2978;42.012;24.880;2022-07-04T13:37:34;98696.91;;;33.00;24.30
5905;BME280;2978;42.012;24.880;2022-07-04T13:40:00;98699.03;;;32.92;24.42
5905;BME280;2978;42.012;24.880;2022-07-04T13:42:25;98701.94;;;32.85;24.54
5905;BME280;2978;42.012;24.880;2022-07-04T13:45:10;98698.22;;;32.88;24.09
5905;BME280;2978;42.012;24.880;2022-07-04T13:47:36;98687.63;;;32.92;23.69
5905;BME280;2978;42.012;24.880;2022-07-04T13:50:03;98680.25;;;32.98;23.21
5905;BME280;2978;42.012;24.880;2022-07-04T13:52:28;98687.06;;;33.04;23.02
5905;BME280;2978;42.012;24.880;2022-07-04T13:54:54;98681.00;;;33.02;23.66
5905;BME280;2978;42.012;24.880;2022-07-04T13:57:19;98677.03;;;33.27;23.47